createdAt,value
2023-05-14T00:00:01.732Z,997.61
2023-05-14T00:01:01.741Z,997.56
2023-05-14T00:02:01.889Z,997.56
2023-05-14T00:03:01.811Z,997.54
2023-05-14T00:04:01.741Z,997.53
2023-05-14T00:05:01.673Z,997.54
2023-05-14T00:06:01.704Z,997.57
2023-05-14T00:07:01.669Z,997.55
2023-05-14T00:08:02.265Z,997.51
2023-05-14T00:09:01.665Z,997.57
2023-05-14T00:10:01.728Z,997.51
2023-05-14T00:11:01.629Z,997.59
2023-05-14T00:12:01.645Z,997.48
2023-05-14T00:13:01.637Z,997.61
2023-05-14T00:14:01.794Z,997.53
2023-05-14T00:15:01.638Z,997.55
2023-05-14T00:16:01.625Z,997.60
2023-05-14T00:17:01.601Z,997.58
2023-05-14T00:18:01.665Z,997.56
2023-05-14T00:19:01.646Z,997.58
2023-05-14T00:20:01.621Z,997.60
2023-05-14T00:21:01.578Z,997.68
2023-05-14T00:22:01.555Z,997.59
2023-05-14T00:23:01.551Z,997.62
2023-05-14T00:24:01.539Z,997.63
2023-05-14T00:25:01.566Z,997.62
2023-05-14T00:26:01.537Z,997.57
2023-05-14T00:27:01.545Z,997.58
2023-05-14T00:28:01.532Z,997.63
2023-05-14T00:29:01.558Z,997.52
2023-05-14T00:30:01.539Z,997.58
2023-05-14T00:31:01.529Z,997.57
2023-05-14T00:32:01.483Z,997.59
2023-05-14T00:33:01.621Z,997.55
2023-05-14T00:34:01.501Z,997.58
2023-05-14T00:35:01.465Z,997.52
2023-05-14T00:36:01.459Z,997.54
2023-05-14T00:37:01.447Z,997.51
2023-05-14T00:38:01.437Z,997.53
2023-05-14T00:39:01.458Z,997.45
2023-05-14T00:40:01.439Z,997.47
2023-05-14T00:41:01.435Z,997.45
2023-05-14T00:42:01.410Z,997.53
2023-05-14T00:43:01.529Z,997.48
2023-05-14T00:44:01.429Z,997.46
2023-05-14T00:45:01.400Z,997.45
2023-05-14T00:46:01.433Z,997.49
2023-05-14T00:47:01.420Z,997.46
2023-05-14T00:48:01.436Z,997.44
2023-05-14T00:49:01.382Z,997.43
2023-05-14T00:50:01.343Z,997.48
2023-05-14T00:51:01.345Z,997.46
2023-05-14T00:52:01.325Z,997.46
2023-05-14T00:53:01.358Z,997.42
2023-05-14T00:54:01.345Z,997.46
2023-05-14T00:55:01.320Z,997.48
2023-05-14T00:56:02.309Z,997.37
2023-05-14T00:57:01.292Z,997.39
2023-05-14T00:58:01.309Z,997.40
2023-05-14T00:59:01.276Z,997.42
2023-05-14T01:00:01.283Z,997.45
2023-05-14T01:01:01.281Z,997.46
2023-05-14T01:02:01.275Z,997.42
2023-05-14T01:03:01.489Z,997.44
2023-05-14T01:04:01.336Z,997.41
2023-05-14T01:05:01.238Z,997.41
2023-05-14T01:06:01.216Z,997.36
2023-05-14T01:07:01.245Z,997.40
2023-05-14T01:08:01.200Z,997.36
2023-05-14T01:09:01.247Z,997.39
2023-05-14T01:10:01.220Z,997.38
2023-05-14T01:11:01.178Z,997.33
2023-05-14T01:12:01.214Z,997.31
2023-05-14T01:13:01.170Z,997.36
2023-05-14T01:14:01.164Z,997.39
2023-05-14T01:15:01.192Z,997.32
2023-05-14T01:16:01.199Z,997.33
2023-05-14T01:17:01.156Z,997.35
2023-05-14T01:18:01.177Z,997.27
2023-05-14T01:19:01.224Z,997.34
2023-05-14T01:20:01.125Z,997.32
2023-05-14T01:21:01.139Z,997.33
2023-05-14T01:22:01.096Z,997.36
2023-05-14T01:23:01.089Z,997.33
2023-05-14T01:24:01.153Z,997.37
2023-05-14T01:25:01.082Z,997.32
2023-05-14T01:26:01.089Z,997.36
2023-05-14T01:27:01.070Z,997.42
2023-05-14T01:28:01.059Z,997.40
2023-05-14T01:29:01.047Z,997.37
2023-05-14T01:30:01.043Z,997.44
2023-05-14T01:31:01.051Z,997.43
2023-05-14T01:32:01.052Z,997.44
2023-05-14T01:33:01.042Z,997.39
2023-05-14T01:34:01.007Z,997.40
2023-05-14T01:35:01.029Z,997.40
2023-05-14T01:36:01.024Z,997.39
2023-05-14T01:37:00.988Z,997.35
2023-05-14T01:38:01.018Z,997.29
2023-05-14T01:39:00.972Z,997.33
2023-05-14T01:40:01.019Z,997.34
2023-05-14T01:41:00.965Z,997.23
2023-05-14T01:42:00.954Z,997.32
2023-05-14T01:43:00.967Z,997.32
2023-05-14T01:44:00.924Z,997.29
2023-05-14T01:45:00.939Z,997.24
2023-05-14T01:46:00.996Z,997.23
2023-05-14T01:47:00.898Z,997.24
2023-05-14T01:48:00.942Z,997.23
2023-05-14T01:49:00.909Z,997.20
2023-05-14T01:50:00.954Z,997.20
2023-05-14T01:51:00.874Z,997.19
2023-05-14T01:52:00.876Z,997.27
2023-05-14T01:53:00.854Z,997.26
2023-05-14T01:54:00.850Z,997.23
2023-05-14T01:55:00.866Z,997.26
2023-05-14T01:56:00.837Z,997.27
2023-05-14T01:57:00.819Z,997.28
2023-05-14T01:58:00.822Z,997.18
2023-05-14T01:59:00.841Z,997.27
2023-05-14T02:00:00.831Z,997.30
2023-05-14T02:01:00.830Z,997.23
2023-05-14T02:02:00.961Z,997.18
2023-05-14T02:03:00.806Z,997.29
2023-05-14T02:04:00.862Z,997.21
2023-05-14T02:05:00.754Z,997.19
2023-05-14T02:06:00.748Z,997.24
2023-05-14T02:07:00.747Z,997.17
2023-05-14T02:08:00.743Z,997.14
2023-05-14T02:09:00.748Z,997.19
2023-05-14T02:10:01.728Z,997.08
2023-05-14T02:11:00.709Z,997.08
2023-05-14T02:12:00.713Z,997.07
2023-05-14T02:13:00.745Z,997.09
2023-05-14T02:14:00.720Z,997.06
2023-05-14T02:15:00.688Z,997.09
2023-05-14T02:16:00.722Z,997.12
2023-05-14T02:17:00.667Z,997.09
2023-05-14T02:18:00.708Z,997.11
2023-05-14T02:19:00.711Z,997.10
2023-05-14T02:20:00.662Z,997.13
2023-05-14T02:21:00.646Z,997.11
2023-05-14T02:22:00.633Z,997.06
2023-05-14T02:23:00.664Z,997.08
2023-05-14T02:24:00.639Z,997.02
2023-05-14T02:25:00.603Z,996.98
2023-05-14T02:26:00.611Z,997.00
2023-05-14T02:27:00.623Z,997.00
2023-05-14T02:28:00.610Z,996.99
2023-05-14T02:29:00.590Z,996.97
2023-05-14T02:30:00.640Z,997.08
2023-05-14T02:31:00.612Z,997.01
2023-05-14T02:32:00.586Z,996.94
2023-05-14T02:33:00.644Z,997.06
2023-05-14T02:34:00.549Z,997.05
2023-05-14T02:35:00.531Z,996.99
2023-05-14T02:36:00.625Z,996.95
2023-05-14T02:37:00.548Z,996.93
2023-05-14T02:38:00.518Z,996.87
2023-05-14T02:39:00.499Z,996.98
2023-05-14T02:40:00.501Z,996.95
2023-05-14T02:41:00.483Z,996.95
2023-05-14T02:42:00.504Z,996.89
2023-05-14T02:43:00.483Z,996.90
2023-05-14T02:44:00.473Z,996.93
2023-05-14T02:45:00.462Z,996.93
2023-05-14T02:46:00.444Z,996.94
2023-05-14T02:47:00.561Z,996.91
2023-05-14T02:48:00.475Z,996.87
2023-05-14T02:49:00.444Z,996.89
2023-05-14T02:50:00.419Z,996.86
2023-05-14T02:51:00.412Z,996.85
2023-05-14T02:52:00.434Z,996.89
2023-05-14T02:53:00.398Z,996.91
2023-05-14T02:54:00.385Z,996.87
2023-05-14T02:55:00.393Z,996.94
2023-05-14T02:56:00.386Z,996.86
2023-05-14T02:57:00.394Z,996.93
2023-05-14T02:58:00.355Z,996.89
2023-05-14T02:59:01.351Z,996.94
2023-05-14T03:00:00.346Z,996.85
2023-05-14T03:01:00.394Z,996.94
2023-05-14T03:02:00.377Z,996.93
2023-05-14T03:03:00.358Z,996.96
2023-05-14T03:04:00.320Z,996.96
2023-05-14T03:05:00.293Z,996.92
2023-05-14T03:06:01.322Z,996.87
2023-05-14T03:07:00.311Z,996.93
2023-05-14T03:08:00.276Z,996.80
2023-05-14T03:09:00.267Z,996.89
2023-05-14T03:10:00.316Z,996.88
2023-05-14T03:11:00.287Z,996.92
2023-05-14T03:12:00.258Z,996.90
2023-05-14T03:13:00.285Z,996.88
2023-05-14T03:14:00.235Z,996.96
2023-05-14T03:15:00.228Z,996.91
2023-05-14T03:16:00.242Z,996.89
2023-05-14T03:17:00.240Z,996.86
2023-05-14T03:18:00.230Z,996.85
2023-05-14T03:19:00.262Z,996.87
2023-05-14T03:20:00.213Z,996.88
2023-05-14T03:21:00.202Z,996.82
2023-05-14T03:22:00.180Z,996.82
2023-05-14T03:23:00.169Z,996.84
2023-05-14T03:24:00.156Z,996.82
2023-05-14T03:25:00.173Z,996.79
2023-05-14T03:26:00.159Z,996.84
2023-05-14T03:27:00.137Z,996.82
2023-05-14T03:28:00.136Z,996.85
2023-05-14T03:29:00.148Z,996.84
2023-05-14T03:30:00.209Z,996.85
2023-05-14T03:31:00.155Z,996.88
2023-05-14T03:32:00.120Z,996.78
2023-05-14T03:33:00.239Z,996.84
2023-05-14T03:34:00.180Z,996.80
2023-05-14T03:35:00.111Z,996.84
2023-05-14T03:36:00.077Z,996.84
2023-05-14T03:37:00.062Z,996.82
2023-05-14T03:38:00.063Z,996.79
2023-05-14T03:39:00.097Z,996.84
2023-05-14T03:40:00.054Z,996.89
2023-05-14T03:41:00.046Z,996.84
2023-05-14T03:42:00.032Z,996.90
2023-05-14T03:43:00.015Z,996.88
2023-05-14T03:44:00.047Z,996.89
2023-05-14T03:45:00.000Z,996.90
2023-05-14T03:45:59.997Z,996.83
2023-05-14T03:46:59.982Z,996.90
2023-05-14T03:48:00.047Z,996.95
2023-05-14T03:49:00.028Z,996.90
2023-05-14T03:49:59.957Z,996.95
2023-05-14T03:50:59.950Z,996.83
2023-05-14T03:51:59.936Z,996.91
2023-05-14T03:52:59.951Z,996.88
2023-05-14T03:53:59.919Z,996.85
2023-05-14T03:54:59.920Z,996.93
2023-05-14T03:55:59.921Z,996.94
2023-05-14T03:56:59.897Z,996.98
2023-05-14T03:57:59.942Z,996.97
2023-05-14T03:58:59.882Z,996.89
2023-05-14T03:59:59.893Z,996.89
2023-05-14T04:00:59.875Z,996.94
2023-05-14T04:01:59.960Z,996.91
2023-05-14T04:03:00.008Z,996.99
2023-05-14T04:03:59.934Z,996.95
2023-05-14T04:04:59.872Z,996.98
2023-05-14T04:05:59.898Z,996.92
2023-05-14T04:06:59.926Z,996.96
2023-05-14T04:07:59.864Z,996.94
2023-05-14T04:08:59.929Z,996.86
2023-05-14T04:10:00.702Z,996.91
2023-05-14T04:10:59.803Z,996.94
2023-05-14T04:11:59.808Z,996.93
2023-05-14T04:12:59.774Z,996.95
2023-05-14T04:13:59.765Z,997.03
2023-05-14T04:14:59.772Z,997.02
2023-05-14T04:15:59.817Z,997.01
2023-05-14T04:17:00.458Z,996.99
2023-05-14T04:17:59.767Z,996.99
2023-05-14T04:18:59.752Z,997.00
2023-05-14T04:19:59.734Z,997.00
2023-05-14T04:20:59.736Z,996.90
2023-05-14T04:21:59.750Z,996.96
2023-05-14T04:22:59.696Z,996.97
2023-05-14T04:23:59.685Z,996.88
2023-05-14T04:24:59.685Z,996.89
2023-05-14T04:25:59.725Z,996.89
2023-05-14T04:26:59.687Z,996.86
2023-05-14T04:27:59.686Z,996.91
2023-05-14T04:28:59.644Z,996.96
2023-05-14T04:29:59.648Z,996.94
2023-05-14T04:30:59.657Z,996.93
2023-05-14T04:31:59.752Z,996.91
2023-05-14T04:32:59.648Z,996.89
2023-05-14T04:33:59.605Z,996.89
2023-05-14T04:34:59.608Z,996.84
2023-05-14T04:35:59.617Z,996.83
2023-05-14T04:36:59.596Z,996.87
2023-05-14T04:37:59.582Z,996.84
2023-05-14T04:38:59.572Z,996.85
2023-05-14T04:39:59.579Z,996.89
2023-05-14T04:40:59.578Z,996.86
2023-05-14T04:41:59.568Z,996.90
2023-05-14T04:42:59.651Z,996.83
2023-05-14T04:43:59.529Z,996.91
2023-05-14T04:44:59.550Z,996.87
2023-05-14T04:45:59.539Z,996.89
2023-05-14T04:46:59.507Z,996.91
2023-05-14T04:47:59.596Z,996.92
2023-05-14T04:48:59.507Z,996.89
2023-05-14T04:49:59.514Z,996.89
2023-05-14T04:50:59.477Z,996.89
2023-05-14T04:51:59.472Z,996.86
2023-05-14T04:52:59.463Z,996.90
2023-05-14T04:53:59.473Z,996.93
2023-05-14T04:54:59.457Z,996.94
2023-05-14T04:56:00.438Z,996.94
2023-05-14T04:56:59.435Z,996.93
2023-05-14T04:57:59.422Z,996.94
2023-05-14T04:58:59.410Z,996.92
2023-05-14T04:59:59.424Z,997.01
2023-05-14T05:00:59.446Z,997.05
2023-05-14T05:01:59.391Z,997.00
2023-05-14T05:02:59.477Z,996.99
2023-05-14T05:03:59.456Z,997.05
2023-05-14T05:04:59.404Z,996.98
2023-05-14T05:05:59.370Z,997.02
2023-05-14T05:06:59.359Z,997.01
2023-05-14T05:07:59.362Z,996.91
2023-05-14T05:09:00.608Z,997.01
2023-05-14T05:09:59.356Z,997.04
2023-05-14T05:10:59.323Z,997.00
2023-05-14T05:11:59.330Z,996.96
2023-05-14T05:12:59.315Z,997.00
2023-05-14T05:13:59.333Z,996.98
2023-05-14T05:14:59.304Z,996.97
2023-05-14T05:15:59.354Z,997.00
2023-05-14T05:16:59.287Z,996.98
2023-05-14T05:17:59.338Z,996.99
2023-05-14T05:18:59.337Z,996.96
2023-05-14T05:19:59.262Z,997.00
2023-05-14T05:20:59.247Z,996.91
2023-05-14T05:21:59.247Z,996.97
2023-05-14T05:22:59.228Z,996.98
2023-05-14T05:23:59.242Z,997.03
2023-05-14T05:25:00.232Z,996.96
2023-05-14T05:25:59.209Z,997.00
2023-05-14T05:26:59.196Z,996.98
2023-05-14T05:27:59.222Z,996.93
2023-05-14T05:28:59.210Z,996.96
2023-05-14T05:29:59.173Z,996.86
2023-05-14T05:30:59.195Z,996.95
2023-05-14T05:31:59.193Z,996.91
2023-05-14T05:32:59.265Z,996.96
2023-05-14T05:33:59.168Z,996.91
2023-05-14T05:34:59.157Z,996.87
2023-05-14T05:35:59.134Z,996.90
2023-05-14T05:36:59.117Z,996.84
2023-05-14T05:38:01.137Z,996.84
2023-05-14T05:38:59.112Z,996.93
2023-05-14T05:39:59.103Z,996.93
2023-05-14T05:40:59.096Z,996.88
2023-05-14T05:41:59.117Z,996.84
2023-05-14T05:42:59.113Z,996.85
2023-05-14T05:43:59.078Z,996.85
2023-05-14T05:44:59.060Z,996.85
2023-05-14T05:45:59.093Z,996.81
2023-05-14T05:47:31.052Z,996.84
2023-05-14T05:47:59.163Z,996.83
2023-05-14T05:48:59.038Z,996.79
2023-05-14T05:49:59.022Z,996.82
2023-05-14T05:50:59.021Z,996.86
2023-05-14T05:51:59.085Z,996.83
2023-05-14T05:52:59.005Z,996.82
2023-05-14T05:53:59.001Z,996.79
2023-05-14T05:54:59.000Z,996.82
2023-05-14T05:55:58.982Z,996.79
2023-05-14T05:56:59.004Z,996.76
2023-05-14T05:57:58.970Z,996.83
2023-05-14T05:58:58.966Z,996.77
2023-05-14T05:59:58.954Z,996.68
2023-05-14T06:00:58.974Z,996.77
2023-05-14T06:01:58.972Z,996.81
2023-05-14T06:02:58.975Z,996.75
2023-05-14T06:03:58.927Z,996.67
2023-05-14T06:04:58.937Z,996.71
2023-05-14T06:05:58.936Z,996.72
2023-05-14T06:06:58.897Z,996.67
2023-05-14T06:07:58.892Z,996.70
2023-05-14T06:08:58.888Z,996.72
2023-05-14T06:09:58.887Z,996.74
2023-05-14T06:10:58.908Z,996.67
2023-05-14T06:11:58.876Z,996.79
2023-05-14T06:12:58.870Z,996.80
2023-05-14T06:13:58.845Z,996.70
2023-05-14T06:14:58.841Z,996.77
2023-05-14T06:15:58.928Z,996.72
2023-05-14T06:16:58.860Z,996.76
2023-05-14T06:17:58.838Z,996.82
2023-05-14T06:18:58.861Z,996.64
2023-05-14T06:19:58.831Z,996.73
2023-05-14T06:20:58.842Z,996.75
2023-05-14T06:21:58.791Z,996.74
2023-05-14T06:22:58.779Z,996.81
2023-05-14T06:23:58.781Z,996.72
2023-05-14T06:24:58.792Z,996.74
2023-05-14T06:25:58.765Z,996.76
2023-05-14T06:26:58.759Z,996.74
2023-05-14T06:27:58.750Z,996.75
2023-05-14T06:28:58.733Z,996.77
2023-05-14T06:29:58.750Z,996.76
2023-05-14T06:30:58.715Z,996.73
2023-05-14T06:31:58.738Z,996.77
2023-05-14T06:32:58.762Z,996.72
2023-05-14T06:33:58.699Z,996.72
2023-05-14T06:34:58.710Z,996.68
2023-05-14T06:35:58.683Z,996.70
2023-05-14T06:36:58.664Z,996.63
2023-05-14T06:37:59.665Z,996.59
2023-05-14T06:38:58.684Z,996.63
2023-05-14T06:39:58.671Z,996.54
2023-05-14T06:40:58.645Z,996.54
2023-05-14T06:41:58.627Z,996.56
2023-05-14T06:42:58.623Z,996.54
2023-05-14T06:43:58.642Z,996.47
2023-05-14T06:44:58.619Z,996.50
2023-05-14T06:45:58.593Z,996.45
2023-05-14T06:46:58.589Z,996.49
2023-05-14T06:47:58.701Z,996.48
2023-05-14T06:48:59.637Z,996.47
2023-05-14T06:49:59.580Z,996.50
2023-05-14T06:50:58.549Z,996.41
2023-05-14T06:51:59.552Z,996.45
2023-05-14T06:52:58.550Z,996.51
2023-05-14T06:53:58.564Z,996.42
2023-05-14T06:54:58.529Z,996.44
2023-05-14T06:55:58.521Z,996.45
2023-05-14T06:56:58.508Z,996.50
2023-05-14T06:57:58.530Z,996.39
2023-05-14T06:58:58.526Z,996.43
2023-05-14T06:59:58.488Z,996.41
2023-05-14T07:00:58.509Z,996.41
2023-05-14T07:01:58.666Z,996.43
2023-05-14T07:02:58.517Z,996.46
2023-05-14T07:03:58.490Z,996.31
2023-05-14T07:04:58.466Z,996.36
2023-05-14T07:05:58.454Z,996.32
2023-05-14T07:06:58.443Z,996.30
2023-05-14T07:07:58.493Z,996.33
2023-05-14T07:08:58.419Z,996.34
2023-05-14T07:09:58.411Z,996.31
2023-05-14T07:10:58.410Z,996.28
2023-05-14T07:11:58.430Z,996.31
2023-05-14T07:12:58.434Z,996.33
2023-05-14T07:13:58.386Z,996.29
2023-05-14T07:14:58.374Z,996.21
2023-05-14T07:15:58.359Z,996.23
2023-05-14T07:16:58.391Z,996.19
2023-05-14T07:17:58.480Z,996.24
2023-05-14T07:18:58.452Z,996.16
2023-05-14T07:19:58.354Z,996.16
2023-05-14T07:20:58.401Z,996.14
2023-05-14T07:21:58.344Z,996.09
2023-05-14T07:22:58.312Z,996.13
2023-05-14T07:23:58.314Z,996.17
2023-05-14T07:24:58.301Z,996.04
2023-05-14T07:25:58.288Z,996.06
2023-05-14T07:26:58.331Z,996.00
2023-05-14T07:27:58.272Z,996.14
2023-05-14T07:28:58.270Z,996.08
2023-05-14T07:29:58.278Z,996.08
2023-05-14T07:30:58.356Z,996.09
2023-05-14T07:31:58.279Z,996.01
2023-05-14T07:32:58.300Z,996.07
2023-05-14T07:33:58.236Z,996.10
2023-05-14T07:34:58.225Z,996.07
2023-05-14T07:35:58.259Z,996.10
2023-05-14T07:36:58.206Z,996.00
2023-05-14T07:37:58.237Z,996.03
2023-05-14T07:38:58.195Z,996.13
2023-05-14T07:39:58.193Z,996.01
2023-05-14T07:40:58.206Z,995.93
2023-05-14T07:41:58.168Z,995.96
2023-05-14T07:42:58.185Z,996.00
2023-05-14T07:43:58.161Z,995.96
2023-05-14T07:44:58.150Z,995.96
2023-05-14T07:45:58.178Z,995.97
2023-05-14T07:46:58.155Z,996.00
2023-05-14T07:47:58.261Z,996.01
2023-05-14T07:48:58.124Z,996.02
2023-05-14T07:49:58.116Z,995.93
2023-05-14T07:50:58.129Z,995.99
2023-05-14T07:51:58.096Z,995.95
2023-05-14T07:52:58.100Z,995.98
2023-05-14T07:53:58.078Z,996.00
2023-05-14T07:54:58.127Z,996.00
2023-05-14T07:55:58.099Z,995.90
2023-05-14T07:56:58.066Z,996.00
2023-05-14T07:57:58.047Z,995.88
2023-05-14T07:58:58.044Z,995.94
2023-05-14T07:59:58.051Z,995.95
2023-05-14T08:00:58.045Z,995.93
2023-05-14T08:01:58.066Z,995.86
2023-05-14T08:02:59.279Z,995.84
2023-05-14T08:03:58.067Z,995.90
2023-05-14T08:04:57.997Z,995.83
2023-05-14T08:05:59.011Z,995.88
2023-05-14T08:06:57.992Z,995.83
2023-05-14T08:07:57.993Z,995.86
2023-05-14T08:08:58.021Z,995.84
2023-05-14T08:09:58.000Z,995.86
2023-05-14T08:10:58.036Z,995.86
2023-05-14T08:11:57.953Z,995.89
2023-05-14T08:12:57.940Z,995.79
2023-05-14T08:13:57.953Z,995.78
2023-05-14T08:14:57.947Z,995.81
2023-05-14T08:15:57.923Z,995.91
2023-05-14T08:16:57.961Z,995.93
2023-05-14T08:17:57.935Z,995.87
2023-05-14T08:18:57.911Z,995.85
2023-05-14T08:19:57.907Z,995.88
2023-05-14T08:20:57.981Z,995.86
2023-05-14T08:21:57.943Z,995.85
2023-05-14T08:22:57.869Z,995.88
2023-05-14T08:23:57.856Z,995.78
2023-05-14T08:24:57.886Z,995.85
2023-05-14T08:25:57.846Z,995.74
2023-05-14T08:26:57.848Z,995.77
2023-05-14T08:27:57.825Z,995.73
2023-05-14T08:28:57.816Z,995.80
2023-05-14T08:29:57.840Z,995.77
2023-05-14T08:30:57.877Z,995.80
2023-05-14T08:31:58.253Z,995.73
2023-05-14T08:32:57.832Z,995.80
2023-05-14T08:33:57.809Z,995.70
2023-05-14T08:34:57.814Z,995.66
2023-05-14T08:35:57.780Z,995.57
2023-05-14T08:36:57.761Z,995.70
2023-05-14T08:37:57.756Z,995.70
2023-05-14T08:38:57.783Z,995.65
2023-05-14T08:39:57.741Z,995.73
2023-05-14T08:40:57.742Z,995.59
2023-05-14T08:41:57.718Z,995.61
2023-05-14T08:42:57.731Z,995.66
2023-05-14T08:43:57.735Z,995.45
2023-05-14T08:44:57.700Z,995.62
2023-05-14T08:45:57.683Z,995.68
2023-05-14T08:46:57.687Z,995.56
2023-05-14T08:47:57.737Z,995.56
2023-05-14T08:48:57.750Z,995.55
2023-05-14T08:49:57.676Z,995.56
2023-05-14T08:50:57.650Z,995.55
2023-05-14T08:51:57.640Z,995.50
2023-05-14T08:52:57.665Z,995.44
2023-05-14T08:53:57.647Z,995.49
2023-05-14T08:54:57.625Z,995.45
2023-05-14T08:55:58.617Z,995.28
2023-05-14T08:56:57.599Z,995.44
2023-05-14T08:57:57.635Z,995.48
2023-05-14T08:58:57.584Z,995.57
2023-05-14T08:59:57.585Z,995.56
2023-05-14T09:00:57.576Z,995.48
2023-05-14T09:01:57.649Z,995.41
2023-05-14T09:02:57.655Z,995.47
2023-05-14T09:03:57.559Z,995.41
2023-05-14T09:04:57.537Z,995.37
2023-05-14T09:05:59.379Z,995.39
2023-05-14T09:06:57.593Z,995.35
2023-05-14T09:07:57.554Z,995.37
2023-05-14T09:08:57.579Z,995.37
2023-05-14T09:09:58.383Z,995.46
2023-05-14T09:10:57.501Z,995.41
2023-05-14T09:11:57.520Z,995.46
2023-05-14T09:12:57.512Z,995.42
2023-05-14T09:13:57.481Z,995.36
2023-05-14T09:14:57.486Z,995.43
2023-05-14T09:15:57.564Z,995.44
2023-05-14T09:16:57.488Z,995.38
2023-05-14T09:17:57.526Z,995.45
2023-05-14T09:18:57.512Z,995.48
2023-05-14T09:19:57.439Z,995.33
2023-05-14T09:20:57.461Z,995.36
2023-05-14T09:21:57.440Z,995.43
2023-05-14T09:22:57.433Z,995.46
2023-05-14T09:23:57.430Z,995.47
2023-05-14T09:24:58.384Z,995.42
2023-05-14T09:25:57.431Z,995.44
2023-05-14T09:26:57.367Z,995.35
2023-05-14T09:27:58.750Z,995.45
2023-05-14T09:28:58.360Z,995.33
2023-05-14T09:29:57.375Z,995.40
2023-05-14T09:30:57.626Z,995.38
2023-05-14T09:31:57.448Z,995.28
2023-05-14T09:32:57.342Z,995.28
2023-05-14T09:33:57.318Z,995.08
2023-05-14T09:34:57.362Z,995.32
2023-05-14T09:35:58.434Z,995.32
2023-05-14T09:36:57.299Z,995.26
2023-05-14T09:37:57.345Z,995.33
2023-05-14T09:38:57.433Z,995.27
2023-05-14T09:39:57.610Z,995.29
2023-05-14T09:40:57.359Z,995.31
2023-05-14T09:41:57.344Z,995.33
2023-05-14T09:42:57.850Z,995.27
2023-05-14T09:43:57.245Z,995.22
2023-05-14T09:44:57.262Z,995.26
2023-05-14T09:45:57.243Z,995.16
2023-05-14T09:46:57.211Z,995.25
2023-05-14T09:47:57.392Z,995.30
2023-05-14T09:48:57.226Z,995.23
2023-05-14T09:49:57.229Z,995.08
2023-05-14T09:50:57.188Z,995.09
2023-05-14T09:51:57.187Z,995.11
2023-05-14T09:52:57.170Z,995.20
2023-05-14T09:53:57.207Z,995.08
2023-05-14T09:54:57.157Z,995.07
2023-05-14T09:55:57.147Z,995.09
2023-05-14T09:56:57.144Z,995.07
2023-05-14T09:57:57.140Z,994.99
2023-05-14T09:58:57.150Z,995.09
2023-05-14T09:59:57.118Z,994.94
2023-05-14T10:00:57.124Z,995.02
2023-05-14T10:01:57.112Z,994.94
2023-05-14T10:02:57.189Z,994.97
2023-05-14T10:03:57.134Z,995.01
2023-05-14T10:04:57.079Z,994.95
2023-05-14T10:05:57.084Z,995.03
2023-05-14T10:06:57.081Z,995.01
2023-05-14T10:07:57.109Z,995.00
2023-05-14T10:08:57.062Z,995.04
2023-05-14T10:09:58.233Z,995.06
2023-05-14T10:10:57.028Z,994.98
2023-05-14T10:11:57.023Z,995.02
2023-05-14T10:12:57.045Z,994.90
2023-05-14T10:13:57.007Z,994.95
2023-05-14T10:14:57.064Z,994.87
2023-05-14T10:15:56.993Z,994.84
2023-05-14T10:16:57.056Z,994.92
2023-05-14T10:17:57.106Z,994.89
2023-05-14T10:18:57.633Z,994.91
2023-05-14T10:19:57.966Z,994.86
2023-05-14T10:20:56.952Z,994.93
2023-05-14T10:21:57.008Z,994.84
2023-05-14T10:22:56.976Z,994.87
2023-05-14T10:23:56.936Z,994.94
2023-05-14T10:24:56.937Z,994.85
2023-05-14T10:25:56.928Z,994.82
2023-05-14T10:26:56.949Z,994.90
2023-05-14T10:27:56.917Z,994.92
2023-05-14T10:28:56.902Z,994.88
2023-05-14T10:29:56.964Z,994.84
2023-05-14T10:30:56.945Z,994.85
2023-05-14T10:31:56.967Z,994.84
2023-05-14T10:32:56.910Z,994.92
2023-05-14T10:33:59.732Z,994.86
2023-05-14T10:34:56.855Z,994.85
2023-05-14T10:35:56.880Z,994.90
2023-05-14T10:36:56.865Z,994.87
2023-05-14T10:37:56.840Z,994.92
2023-05-14T10:38:56.824Z,994.96
2023-05-14T10:39:56.819Z,994.93
2023-05-14T10:40:56.858Z,994.91
2023-05-14T10:41:56.798Z,994.88
2023-05-14T10:42:56.793Z,994.79
2023-05-14T10:43:56.789Z,994.81
2023-05-14T10:44:56.803Z,994.77
2023-05-14T10:45:56.802Z,994.79
2023-05-14T10:46:56.881Z,994.77
2023-05-14T10:47:56.814Z,994.74
2023-05-14T10:48:56.756Z,994.82
2023-05-14T10:49:56.740Z,994.78
2023-05-14T10:50:56.846Z,994.74
2023-05-14T10:51:56.721Z,994.77
2023-05-14T10:52:56.717Z,994.75
2023-05-14T10:53:56.712Z,994.76
2023-05-14T10:54:56.722Z,994.72
2023-05-14T10:55:56.723Z,994.68
2023-05-14T10:56:56.685Z,994.64
2023-05-14T10:57:56.687Z,994.69
2023-05-14T10:58:56.683Z,994.62
2023-05-14T10:59:56.693Z,994.59
2023-05-14T11:00:56.654Z,994.58
2023-05-14T11:01:56.700Z,994.64
2023-05-14T11:02:56.759Z,994.69
2023-05-14T11:03:56.660Z,994.66
2023-05-14T11:04:56.657Z,994.66
2023-05-14T11:05:56.616Z,994.68
2023-05-14T11:06:56.609Z,994.70
2023-05-14T11:07:56.603Z,994.65
2023-05-14T11:08:56.600Z,994.62
2023-05-14T11:09:56.617Z,994.62
2023-05-14T11:10:56.585Z,994.58
2023-05-14T11:11:56.573Z,994.60
2023-05-14T11:12:56.562Z,994.62
2023-05-14T11:13:56.594Z,994.50
2023-05-14T11:14:56.572Z,994.55
2023-05-14T11:15:56.633Z,994.42
2023-05-14T11:16:56.590Z,994.44
2023-05-14T11:17:56.662Z,994.46
2023-05-14T11:18:56.584Z,994.40
2023-05-14T11:19:56.523Z,994.43
2023-05-14T11:20:56.513Z,994.38
2023-05-14T11:21:56.501Z,994.36
2023-05-14T11:22:56.491Z,994.32
2023-05-14T11:23:56.538Z,994.33
2023-05-14T11:24:56.506Z,994.34
2023-05-14T11:25:56.483Z,994.34
2023-05-14T11:26:56.465Z,994.29
2023-05-14T11:27:56.486Z,994.35
2023-05-14T11:28:56.476Z,994.31
2023-05-14T11:29:56.449Z,994.33
2023-05-14T11:30:56.437Z,994.33
2023-05-14T11:31:56.486Z,994.33
2023-05-14T11:32:56.487Z,994.27
2023-05-14T11:33:56.424Z,994.19
2023-05-14T11:34:56.409Z,994.22
2023-05-14T11:35:56.406Z,994.20
2023-05-14T11:36:56.395Z,994.23
2023-05-14T11:37:56.422Z,994.20
2023-05-14T11:38:56.382Z,994.13
2023-05-14T11:39:56.375Z,994.11
2023-05-14T11:40:56.365Z,994.13
2023-05-14T11:41:56.393Z,994.06
2023-05-14T11:42:56.371Z,994.07
2023-05-14T11:43:56.341Z,994.04
2023-05-14T11:44:56.341Z,994.08
2023-05-14T11:45:56.379Z,994.02
2023-05-14T11:47:28.298Z,994.08
2023-05-14T11:47:56.345Z,994.04
2023-05-14T11:48:56.310Z,994.00
2023-05-14T11:49:56.309Z,994.05
2023-05-14T11:50:56.303Z,994.05
2023-05-14T11:51:56.318Z,994.03
2023-05-14T11:52:56.292Z,994.05
2023-05-14T11:53:56.269Z,993.98
2023-05-14T11:54:56.266Z,993.96
2023-05-14T11:55:56.260Z,993.93
2023-05-14T11:56:56.273Z,993.93
2023-05-14T11:57:56.248Z,993.93
2023-05-14T11:58:56.248Z,993.96
2023-05-14T11:59:56.232Z,993.97
2023-05-14T12:00:57.257Z,993.96
2023-05-14T12:01:56.230Z,993.98
2023-05-14T12:02:56.315Z,993.95
2023-05-14T12:03:56.259Z,994.02
2023-05-14T12:04:56.203Z,993.90
2023-05-14T12:05:56.220Z,993.85
2023-05-14T12:06:56.173Z,993.89
2023-05-14T12:07:56.177Z,993.83
2023-05-14T12:08:56.153Z,993.98
2023-05-14T12:09:56.149Z,993.84
2023-05-14T12:10:56.178Z,993.88
2023-05-14T12:11:56.138Z,993.86
2023-05-14T12:12:56.122Z,993.92
2023-05-14T12:13:56.108Z,993.82
2023-05-14T12:14:56.121Z,993.78
2023-05-14T12:15:56.169Z,993.82
2023-05-14T12:16:56.086Z,993.77
2023-05-14T12:17:56.145Z,993.70
2023-05-14T12:18:56.125Z,993.76
2023-05-14T12:19:56.114Z,993.71
2023-05-14T12:20:56.060Z,993.73
2023-05-14T12:21:56.047Z,993.77
2023-05-14T12:22:56.049Z,993.78
2023-05-14T12:23:56.059Z,993.76
2023-05-14T12:24:56.073Z,993.71
2023-05-14T12:25:56.041Z,993.75
2023-05-14T12:26:56.021Z,993.72
2023-05-14T12:27:56.009Z,993.68